Time;durP1;ratioP1;P1;durP2;ratioP2;P2;SDS_P1;SDS_P2;PMS_P1;PMS_P2;Temp;Humidity;BMP_temperature;BMP_pressure;BME280_temperature;BME280_humidity;BME280_pressure;Samples;Min_cycle;Max_cycle;Signal;HPM_P1;HPM_P2
2022/06/15 00:01:13;;;;;;;5.03;2.85;;;;;;;15.54;54.93;101098.88;5153954;27;20034;-49
2022/06/15 00:03:40;;;;;;;5.35;2.53;;;;;;;15.53;55.10;101098.06;5153058;27;20033;-50
2022/06/15 00:06:11;;;;;;;5.95;3.33;;;;;;;15.54;55.58;101109.72;5153145;27;20031;-50
2022/06/15 00:08:38;;;;;;;4.32;2.78;;;;;;;15.40;55.48;101093.50;5151947;27;20047;-48
2022/06/15 00:11:05;;;;;;;6.00;3.08;;;;;;;15.39;54.96;101091.81;5140387;27;20032;-48
2022/06/15 00:13:31;;;;;;;8.38;2.90;;;;;;;15.39;55.74;101091.81;5140423;27;20091;-47
2022/06/15 00:15:57;;;;;;;6.32;2.88;;;;;;;15.39;55.36;101091.81;5143900;27;20065;-48
2022/06/15 00:18:28;;;;;;;7.38;2.92;;;;;;;15.42;55.01;101101.41;5144815;27;20083;-50
2022/06/15 00:20:55;;;;;;;10.07;3.17;;;;;;;15.11;55.23;101048.75;5146447;27;20019;-48
2022/06/15 00:23:21;;;;;;;4.88;2.65;;;;;;;15.28;55.53;101085.19;5146569;27;20030;-47
2022/06/15 00:25:50;;;;;;;8.55;3.17;;;;;;;15.34;56.04;101094.34;5144753;27;20027;-49
2022/06/15 00:28:16;;;;;;;4.45;2.90;;;;;;;15.36;55.13;101107.63;5141970;27;20076;-50
2022/06/15 00:30:42;;;;;;;5.35;2.67;;;;;;;15.20;55.58;101082.69;5142500;27;20023;-48
2022/06/15 00:33:07;;;;;;;11.27;3.53;;;;;;;15.24;55.72;101089.31;5142844;27;20023;-48
2022/06/15 00:35:33;;;;;;;5.68;2.42;;;;;;;15.16;56.11;101089.56;5142965;27;20027;-46
2022/06/15 00:37:59;;;;;;;5.40;3.17;;;;;;;15.07;56.12;101090.81;5140355;27;20092;-47
2022/06/15 00:40:25;;;;;;;6.18;3.20;;;;;;;15.06;56.20;101083.72;5140489;27;20034;-47
2022/06/15 00:42:50;;;;;;;5.65;2.45;;;;;;;14.99;56.29;101083.72;5138463;27;20035;-47
2022/06/15 00:45:16;;;;;;;4.35;2.42;;;;;;;15.04;56.36;101096.63;5137664;27;20023;-48
2022/06/15 00:47:44;;;;;;;4.28;2.53;;;;;;;15.00;56.61;101103.50;5137337;27;20343;-49
2022/06/15 00:50:16;;;;;;;7.05;2.55;;;;;;;14.88;56.84;101085.16;5137601;27;20035;-47
2022/06/15 00:53:05;;;;;;;3.10;2.60;;;;;;;14.83;57.53;101079.53;5137943;27;20027;-48
2022/06/15 00:55:33;;;;;;;6.63;3.17;;;;;;;14.88;56.61;101087.88;5137752;27;20114;-48
2022/06/15 00:58:03;;;;;;;3.40;2.80;;;;;;;14.90;56.86;101095.78;5118836;27;20027;-50
2022/06/15 01:00:30;;;;;;;7.65;3.08;;;;;;;14.88;56.43;101096.00;5135562;27;20482;-48
2022/06/15 01:02:56;;;;;;;6.47;3.15;;;;;;;14.85;56.69;101095.56;5137295;27;20036;-48
2022/06/15 01:05:31;;;;;;;5.80;3.40;;;;;;;14.82;56.74;101099.53;5137376;27;20027;-48
2022/06/15 01:08:16;;;;;;;;;;;;;;;14.77;58.48;101098.47;5136496;27;20048;-51
2022/06/15 01:11:17;;;;;;;5.82;2.80;;;;;;;14.77;56.98;101102.00;5136292;27;19933;-48
2022/06/15 01:14:23;;;;;;;5.18;2.70;;;;;;;14.73;57.65;101103.47;5123316;27;20055;-47
2022/06/15 01:17:15;;;;;;;2.85;2.20;;;;;;;14.66;58.20;101102.63;5124450;27;20026;-49
2022/06/15 01:20:08;;;;;;;5.85;3.08;;;;;;;14.55;58.16;101101.31;5122019;27;20034;-48
2022/06/15 01:23:11;;;;;;;4.47;2.67;;;;;;;14.53;58.13;101097.97;5136234;27;20403;-48
2022/06/15 01:26:17;;;;;;;8.65;2.78;;;;;;;14.51;57.95;101090.06;5126223;27;20090;-48
2022/06/15 01:28:51;;;;;;;4.57;2.55;;;;;;;14.35;57.73;101086.91;5129017;27;20023;-48
2022/06/15 01:31:34;;;;;;;2.75;2.47;;;;;;;14.42;57.88;101095.88;5139077;27;20035;-51
2022/06/15 01:34:19;;;;;;;4.72;3.25;;;;;;;14.32;58.03;101088.16;5135140;27;20095;-47
2022/06/15 01:37:02;;;;;;;5.10;2.92;;;;;;;14.36;58.16;101108.31;5135998;27;20027;-48
2022/06/15 01:39:39;;;;;;;4.60;3.22;;;;;;;14.36;58.09;101102.06;5136516;27;20023;-48
2022/06/15 01:42:11;;;;;;;6.20;3.15;;;;;;;14.27;57.84;101094.16;5136614;27;20023;-48
2022/06/15 01:44:42;;;;;;;3.53;2.63;;;;;;;14.31;58.14;101106.22;5135748;27;20085;-49
2022/06/15 01:47:12;;;;;;;4.10;2.70;;;;;;;14.27;58.22;101104.13;5135032;27;20019;-47
2022/06/15 01:49:45;;;;;;;5.15;2.70;;;;;;;14.22;58.46;101106.59;5136110;27;20035;-49
2022/06/15 01:52:15;;;;;;;2.85;2.40;;;;;;;14.16;58.56;101110.13;5135707;27;20114;-48
2022/06/15 01:54:48;;;;;;;3.58;2.55;;;;;;;14.11;58.46;101108.88;5135784;27;20109;-51
2022/06/15 01:57:16;;;;;;;2.83;2.00;;;;;;;14.08;58.62;101106.56;5135460;27;20033;-48
2022/06/15 01:59:48;;;;;;;5.50;2.78;;;;;;;14.00;58.90;101095.09;5135336;27;20026;-52
2022/06/15 02:02:24;;;;;;;5.75;3.08;;;;;;;14.06;59.25;101103.22;5135376;27;20040;-50
2022/06/15 02:05:13;;;;;;;5.55;3.90;;;;;;;13.97;60.43;101109.81;5133875;27;20031;-47
2022/06/15 02:08:03;;;;;;;4.45;3.10;;;;;;;13.77;60.66;101096.22;5117989;27;20028;-48
2022/06/15 02:10:34;;;;;;;4.40;2.80;;;;;;;13.58;61.11;101089.69;5135208;27;20038;-48
2022/06/15 02:13:14;;;;;;;5.65;3.42;;;;;;;13.67;61.26;101101.97;5135427;27;20136;-47
2022/06/15 02:15:46;;;;;;;3.25;3.00;;;;;;;13.61;61.06;101102.75;5134089;27;20038;-48
2022/06/15 02:18:17;;;;;;;6.07;3.47;;;;;;;13.50;60.75;101090.66;5134781;27;20118;-49
2022/06/15 02:20:51;;;;;;;5.05;3.50;;;;;;;13.51;61.32;101108.50;5135512;27;20038;-47
2022/06/15 02:23:18;;;;;;;3.75;2.75;;;;;;;13.47;60.75;101115.34;5134703;27;20031;-48
2022/06/15 02:25:50;;;;;;;4.65;2.47;;;;;;;13.45;61.45;101113.88;5136347;27;20029;-51
2022/06/15 02:28:18;;;;;;;4.00;2.80;;;;;;;13.39;61.28;101115.50;5135873;27;20046;-48
2022/06/15 02:30:44;;;;;;;3.17;2.70;;;;;;;13.29;61.83;101115.78;5134721;27;20471;-47
2022/06/15 02:33:19;;;;;;;3.30;3.00;;;;;;;13.27;62.07;101115.16;5134783;27;20031;-50
2022/06/15 02:35:45;;;;;;;4.70;3.72;;;;;;;13.26;61.71;101118.91;5134618;27;20036;-52
2022/06/15 02:38:11;;;;;;;5.60;2.97;;;;;;;13.28;61.45;101116.84;5134621;27;20072;-48
2022/06/15 02:40:37;;;;;;;6.07;3.20;;;;;;;13.31;61.73;101112.94;5134694;27;20031;-49
2022/06/15 02:43:03;;;;;;;3.20;2.90;;;;;;;13.28;61.62;101110.56;5134549;27;20038;-48
2022/06/15 02:45:34;;;;;;;4.60;3.03;;;;;;;13.21;61.97;101105.16;5136524;27;20441;-47
2022/06/15 02:48:03;;;;;;;3.42;2.78;;;;;;;13.11;61.92;101110.88;5136054;27;20402;-47
2022/06/15 02:50:33;;;;;;;4.00;2.70;;;;;;;13.05;62.39;101105.44;5136941;27;20047;-48
2022/06/15 02:53:04;;;;;;;3.40;2.53;;;;;;;12.91;62.34;101099.09;5136312;27;20062;-47
2022/06/15 02:55:31;;;;;;;3.63;2.60;;;;;;;12.89;62.44;101109.22;5134986;27;20080;-52
2022/06/15 02:58:35;;;;;;;3.10;2.85;;;;;;;12.83;63.68;101105.41;5134305;27;20471;-47
2022/06/15 03:01:02;;;;;;;2.88;2.30;;;;;;;12.72;63.16;101105.94;5133572;28;20035;-48
2022/06/15 03:03:28;;;;;;;4.70;2.65;;;;;;;12.55;63.38;101078.41;5134558;27;20023;-48
2022/06/15 03:05:55;;;;;;;6.55;3.05;;;;;;;12.67;63.46;101108.41;5134487;27;20023;-48
2022/06/15 03:08:21;;;;;;;2.45;2.15;;;;;;;12.63;63.03;101113.34;5134321;27;20075;-48
2022/06/15 03:10:52;;;;;;;3.50;2.88;;;;;;;12.59;63.31;101112.88;5134411;27;20027;-49
2022/06/15 03:13:19;;;;;;;6.20;3.28;;;;;;;12.53;63.59;101104.72;5134101;27;20046;-49
2022/06/15 03:15:45;;;;;;;4.38;2.95;;;;;;;12.59;63.77;101112.03;5132840;28;20459;-48
2022/06/15 03:18:11;;;;;;;4.47;2.50;;;;;;;12.56;63.90;101115.13;5134066;27;20157;-48
2022/06/15 03:20:37;;;;;;;6.20;3.13;;;;;;;12.52;64.38;101111.97;5134775;27;20126;-52
2022/06/15 03:23:06;;;;;;;2.70;2.50;;;;;;;12.47;64.26;101117.09;5134712;27;20019;-49
2022/06/15 03:25:33;;;;;;;4.10;2.80;;;;;;;12.45;64.38;101118.31;5099743;28;20138;-49
2022/06/15 03:27:59;;;;;;;6.57;3.05;;;;;;;12.41;64.78;101112.47;5132596;28;20024;-49
2022/06/15 03:30:25;;;;;;;9.48;3.47;;;;;;;12.40;64.45;101110.78;5133844;27;20058;-50
2022/06/15 03:32:51;;;;;;;4.18;3.05;;;;;;;12.37;64.45;101113.88;5134000;27;20096;-47
2022/06/15 03:35:17;;;;;;;3.42;3.10;;;;;;;12.29;64.54;101103.19;5132638;28;20031;-47
2022/06/15 03:37:43;;;;;;;3.55;3.25;;;;;;;12.22;64.92;101108.53;5133728;27;20467;-47
2022/06/15 03:40:10;;;;;;;3.65;3.13;;;;;;;12.26;64.52;101111.66;5134228;27;20031;-48
2022/06/15 03:42:36;;;;;;;3.38;3.08;;;;;;;12.21;64.31;101104.16;5134534;27;20023;-48
2022/06/15 03:45:03;;;;;;;3.35;3.03;;;;;;;12.22;64.88;101104.97;5117670;27;20101;-50
2022/06/15 03:47:29;;;;;;;7.25;3.58;;;;;;;12.27;64.59;101110.63;5136938;27;20152;-48
2022/06/15 03:49:55;;;;;;;3.25;2.88;;;;;;;12.30;64.58;101116.47;5136941;27;20046;-49
2022/06/15 03:52:24;;;;;;;5.03;3.10;;;;;;;12.33;63.88;101117.94;5138851;27;20038;-52
2022/06/15 03:54:50;;;;;;;6.45;3.70;;;;;;;12.34;63.88;101131.22;5138684;27;20058;-48
2022/06/15 03:57:18;;;;;;;3.83;3.03;;;;;;;12.29;64.01;101113.97;5138071;27;20444;-48
2022/06/15 03:59:44;;;;;;;6.25;3.63;;;;;;;12.32;63.52;101121.69;5137016;27;20023;-48
2022/06/15 04:02:11;;;;;;;9.52;4.38;;;;;;;12.33;64.22;101123.34;5138429;27;20039;-48
2022/06/15 04:04:37;;;;;;;8.65;4.32;;;;;;;12.30;64.65;101127.25;5138108;27;20141;-49
2022/06/15 04:07:04;;;;;;;5.05;3.65;;;;;;;12.27;64.44;101121.41;5136866;27;20031;-49
2022/06/15 04:09:30;;;;;;;6.68;3.28;;;;;;;12.20;65.03;101124.88;5138028;27;20043;-48
2022/06/15 04:11:59;;;;;;;7.10;3.35;;;;;;;12.13;65.18;101113.16;5138330;27;20036;-50
2022/06/15 04:14:26;;;;;;;4.93;3.20;;;;;;;12.10;65.20;101110.84;5121016;27;20059;-48
2022/06/15 04:16:56;;;;;;;5.65;3.85;;;;;;;12.02;65.40;101108.25;5139028;27;20052;-50
2022/06/15 04:19:25;;;;;;;3.95;3.30;;;;;;;12.07;66.09;101103.16;5138121;27;20023;-50
2022/06/15 04:21:50;;;;;;;4.45;3.33;;;;;;;12.06;65.84;101112.25;5137244;27;20140;-49
2022/06/15 04:24:18;;;;;;;4.78;3.17;;;;;;;11.99;66.02;101101.38;5137635;27;20051;-52
2022/06/15 04:26:45;;;;;;;4.68;4.15;;;;;;;12.01;65.73;101110.09;5137160;27;20132;-47
2022/06/15 04:29:11;;;;;;;7.40;4.38;;;;;;;12.01;66.22;101114.66;5135771;27;20440;-52
2022/06/15 04:31:38;;;;;;;7.47;4.57;;;;;;;11.94;66.03;101105.66;5137436;27;20031;-51
2022/06/15 04:34:05;;;;;;;5.45;4.00;;;;;;;12.03;66.25;101127.94;5136892;27;20030;-48
2022/06/15 04:36:31;;;;;;;3.78;3.47;;;;;;;12.05;66.16;101123.19;5137096;27;20342;-51
2022/06/15 04:38:57;;;;;;;5.13;3.40;;;;;;;12.04;65.86;101113.47;5137119;27;20028;-49
2022/06/15 04:41:23;;;;;;;4.25;3.85;;;;;;;12.00;66.50;101113.00;5135372;27;20076;-50
2022/06/15 04:43:49;;;;;;;5.63;3.80;;;;;;;12.12;66.16;101122.25;5137051;27;20027;-49
2022/06/15 04:46:15;;;;;;;4.30;3.90;;;;;;;12.12;66.76;101124.13;5136595;27;20053;-51
2022/06/15 04:48:41;;;;;;;4.40;3.72;;;;;;;12.16;66.72;101106.56;5136700;27;20027;-48
2022/06/15 04:51:13;;;;;;;4.28;3.72;;;;;;;12.58;65.70;101116.59;5136533;27;20031;-51
2022/06/15 04:53:39;;;;;;;4.13;3.78;;;;;;;12.52;65.35;101111.97;5136758;27;20536;-47
2022/06/15 04:56:05;;;;;;;6.45;3.83;;;;;;;12.37;65.89;101116.56;5134988;27;20039;-52
2022/06/15 04:58:31;;;;;;;4.15;3.55;;;;;;;12.32;66.02;101111.72;5136637;27;20413;-50
2022/06/15 05:00:57;;;;;;;3.80;3.47;;;;;;;12.35;66.48;101121.28;5136410;27;20158;-50
2022/06/15 05:03:23;;;;;;;3.70;3.40;;;;;;;12.35;66.21;101116.75;5135528;27;20031;-49
2022/06/15 05:05:49;;;;;;;4.03;3.38;;;;;;;12.43;66.18;101123.06;5136611;27;20034;-50
2022/06/15 05:08:15;;;;;;;3.88;3.47;;;;;;;12.48;66.05;101118.75;5134619;27;20065;-48
2022/06/15 05:10:40;;;;;;;7.57;4.32;;;;;;;12.53;66.30;101123.56;5136934;27;20038;-47
2022/06/15 05:13:06;;;;;;;4.40;4.00;;;;;;;12.62;66.20;101127.81;5136849;27;20530;-49
2022/06/15 05:15:32;;;;;;;7.28;3.80;;;;;;;12.58;66.07;101126.53;5136925;27;20030;-50
2022/06/15 05:18:04;;;;;;;4.47;3.08;;;;;;;12.63;66.13;101132.19;5135599;27;20035;-50
2022/06/15 05:20:30;;;;;;;6.88;3.42;;;;;;;12.61;65.82;101128.00;5135274;27;20031;-48
2022/06/15 05:22:56;;;;;;;4.18;3.10;;;;;;;12.67;66.45;101143.44;5136824;27;20386;-48
2022/06/15 05:25:21;;;;;;;5.28;3.25;;;;;;;12.69;65.94;101141.38;5137190;27;20031;-48
2022/06/15 05:27:47;;;;;;;5.78;4.38;;;;;;;12.64;66.03;101122.25;5137080;27;20027;-48
2022/06/15 05:30:13;;;;;;;6.47;4.22;;;;;;;12.79;66.70;101142.72;5139622;27;20034;-49
2022/06/15 05:32:39;;;;;;;3.75;3.45;;;;;;;12.83;66.43;101151.25;5141212;27;20027;-49
2022/06/15 05:35:05;;;;;;;5.53;3.60;;;;;;;12.86;66.66;101148.19;5141638;27;20031;-48
2022/06/15 05:37:32;;;;;;;4.35;3.90;;;;;;;12.89;66.10;101146.94;5141253;27;20042;-47
2022/06/15 05:39:57;;;;;;;7.78;5.78;;;;;;;12.86;66.84;101140.09;5139293;27;20027;-49
2022/06/15 05:42:27;;;;;;;13.35;6.78;;;;;;;12.93;67.96;101150.94;5137334;27;20462;-50
2022/06/15 05:44:54;;;;;;;6.60;5.10;;;;;;;13.02;66.57;101160.59;5138919;27;20087;-48
2022/06/15 05:47:20;;;;;;;8.27;6.18;;;;;;;13.04;66.57;101150.44;5138452;27;20027;-48
2022/06/15 05:49:46;;;;;;;8.50;4.15;;;;;;;13.15;66.19;101159.88;5138545;27;20027;-49
2022/06/15 05:52:11;;;;;;;9.77;6.05;;;;;;;13.23;66.69;101165.13;5134453;27;20056;-49
2022/06/15 05:54:38;;;;;;;6.03;4.10;;;;;;;13.24;66.59;101152.47;5135713;27;20055;-52
2022/06/15 05:57:15;;;;;;;7.35;5.15;;;;;;;13.31;65.92;101156.09;5136444;27;20034;-49
2022/06/15 05:59:41;;;;;;;9.75;6.53;;;;;;;13.38;66.94;101150.75;5135189;27;20039;-53
2022/06/15 06:02:10;;;;;;;11.40;7.15;;;;;;;13.47;69.51;101139.63;5135303;27;20075;-48
2022/06/15 06:04:35;;;;;;;10.10;5.78;;;;;;;13.55;68.23;101141.34;5117115;27;20081;-48
2022/06/15 06:07:01;;;;;;;9.75;5.70;;;;;;;13.59;68.70;101142.59;5134641;27;20031;-57
2022/06/15 06:09:28;;;;;;;9.80;6.07;;;;;;;13.66;69.64;101143.50;5134986;27;20061;-51
2022/06/15 06:11:55;;;;;;;12.88;5.93;;;;;;;13.69;68.57;101153.06;5134191;27;20019;-49
2022/06/15 06:14:21;;;;;;;15.00;7.03;;;;;;;13.65;70.89;101125.66;5135655;27;20402;-51
2022/06/15 06:16:46;;;;;;;11.65;7.07;;;;;;;13.85;70.61;101136.53;5134418;27;20474;-48
2022/06/15 06:19:12;;;;;;;10.38;6.22;;;;;;;13.90;70.07;101128.69;5134491;27;20038;-50
2022/06/15 06:21:38;;;;;;;9.95;6.20;;;;;;;14.05;70.83;101135.84;5135861;27;20047;-48
2022/06/15 06:24:04;;;;;;;12.20;6.35;;;;;;;14.11;70.62;101152.09;5134284;27;20387;-49
2022/06/15 06:26:31;;;;;;;13.40;6.80;;;;;;;14.20;70.94;101149.19;5137244;27;20484;-48
2022/06/15 06:28:58;;;;;;;8.18;6.18;;;;;;;14.24;70.18;101151.28;5134970;27;20034;-50
2022/06/15 06:31:25;;;;;;;10.48;5.57;;;;;;;14.28;70.08;101149.00;5134027;27;20463;-48
2022/06/15 06:33:52;;;;;;;5.55;4.50;;;;;;;14.37;69.84;101150.50;5133705;27;20038;-49
2022/06/15 06:36:40;;;;;;;5.82;5.10;;;;;;;14.46;70.39;101140.38;5134875;27;20055;-48
2022/06/15 06:39:13;;;;;;;8.82;4.88;;;;;;;14.49;69.50;101140.78;5133765;27;20035;-49
2022/06/15 06:41:39;;;;;;;6.43;4.97;;;;;;;14.59;69.78;101150.41;5134962;27;20494;-52
2022/06/15 06:44:07;;;;;;;11.73;5.40;;;;;;;14.65;68.96;101146.91;5133790;27;20027;-49
2022/06/15 06:46:34;;;;;;;9.68;5.10;;;;;;;14.73;69.03;101148.56;5134611;27;20031;-52
2022/06/15 06:49:00;;;;;;;7.88;5.20;;;;;;;14.78;68.73;101146.91;5133497;27;20246;-51
2022/06/15 06:51:27;;;;;;;14.02;5.43;;;;;;;14.88;68.66;101150.06;5134844;27;20034;-49
2022/06/15 06:53:53;;;;;;;9.80;4.93;;;;;;;14.99;68.85;101145.94;5133564;27;20074;-51
2022/06/15 06:56:19;;;;;;;9.68;5.90;;;;;;;15.02;68.33;101133.88;5135279;27;20099;-50
2022/06/15 06:58:45;;;;;;;10.32;5.22;;;;;;;15.19;67.91;101145.09;5134716;28;20062;-50
2022/06/15 07:01:10;;;;;;;8.90;4.80;;;;;;;15.25;67.12;101144.31;5135046;27;20031;-48
2022/06/15 07:03:36;;;;;;;7.93;4.35;;;;;;;15.21;67.11;101143.03;5135185;28;20331;-50
2022/06/15 07:06:06;;;;;;;10.77;5.43;;;;;;;15.25;66.85;101147.81;5134673;27;20027;-47
2022/06/15 07:08:32;;;;;;;8.75;5.05;;;;;;;15.23;66.46;101141.78;5133747;28;20039;-49
2022/06/15 07:10:59;;;;;;;10.63;5.47;;;;;;;15.43;67.21;101151.78;5134688;27;20035;-48
2022/06/15 07:13:25;;;;;;;8.13;4.43;;;;;;;15.47;66.71;101148.44;5134695;27;20030;-48
2022/06/15 07:15:51;;;;;;;9.02;5.43;;;;;;;15.58;65.86;101160.53;5134929;27;20463;-49
2022/06/15 07:18:18;;;;;;;17.48;6.13;;;;;;;15.74;65.85;101153.84;5135898;27;20038;-49
2022/06/15 07:20:44;;;;;;;10.57;5.22;;;;;;;15.83;65.82;101152.59;5136899;27;20470;-51
2022/06/15 07:23:10;;;;;;;5.55;3.95;;;;;;;15.97;64.98;101156.13;5137907;27;20042;-49
2022/06/15 07:25:37;;;;;;;8.20;5.05;;;;;;;15.90;64.37;101157.16;5137412;27;20490;-47
2022/06/15 07:28:03;;;;;;;9.63;5.57;;;;;;;15.83;64.16;101143.66;5137702;27;20023;-48
2022/06/15 07:30:30;;;;;;;8.70;5.00;;;;;;;15.98;64.29;101154.22;5137729;27;20019;-47
2022/06/15 07:32:55;;;;;;;12.68;5.82;;;;;;;15.92;64.36;101157.81;5139771;27;20105;-49
2022/06/15 07:35:26;;;;;;;11.85;5.88;;;;;;;16.03;64.61;101162.56;5138544;27;20035;-47
2022/06/15 07:37:52;;;;;;;9.55;5.95;;;;;;;16.09;63.53;101167.13;5138580;27;20110;-48
2022/06/15 07:40:20;;;;;;;11.43;6.10;;;;;;;16.22;63.51;101175.22;5138658;27;20060;-49
2022/06/15 07:42:47;;;;;;;10.73;5.90;;;;;;;16.31;63.56;101170.38;5138252;27;20031;-48
2022/06/15 07:45:16;;;;;;;11.02;5.38;;;;;;;16.51;62.96;101170.31;5138204;27;20027;-49
2022/06/15 07:50:28;;;;;;;12.52;5.85;;;;;;;16.80;62.32;101177.03;5137834;27;20031;-48
2022/06/15 07:52:54;;;;;;;12.85;5.22;;;;;;;16.76;61.34;101169.56;5138547;27;20038;-48
2022/06/15 07:55:25;;;;;;;7.95;5.35;;;;;;;16.91;62.05;101175.53;5139884;27;20110;-48
2022/06/15 07:57:52;;;;;;;13.70;5.22;;;;;;;16.99;61.27;101167.16;5137274;27;20039;-52
2022/06/15 08:00:19;;;;;;;11.50;5.75;;;;;;;17.06;60.59;101172.53;5141206;27;20046;-52
2022/06/15 08:02:46;;;;;;;6.97;4.05;;;;;;;17.09;60.38;101163.94;5139821;27;20027;-51
2022/06/15 08:05:12;;;;;;;7.50;4.85;;;;;;;17.25;60.48;101167.16;5137902;27;20539;-51
2022/06/15 08:07:39;;;;;;;8.63;4.10;;;;;;;17.33;60.04;101164.19;5137324;27;20046;-49
2022/06/15 08:10:05;;;;;;;7.55;5.60;;;;;;;17.52;59.50;101170.50;5137846;27;20064;-47
2022/06/15 08:12:31;;;;;;;11.07;5.15;;;;;;;17.66;58.96;101161.16;5137394;27;20110;-47
2022/06/15 08:15:00;;;;;;;11.70;4.97;;;;;;;17.98;57.62;101166.53;5136050;27;20069;-51
2022/06/15 08:17:33;;;;;;;8.75;4.95;;;;;;;18.57;56.00;101164.13;5118976;27;20019;-46
2022/06/15 08:20:09;;;;;;;7.20;4.30;;;;;;;19.38;53.88;101148.31;5136280;27;20031;-50
2022/06/15 08:22:39;;;;;;;8.00;4.72;;;;;;;20.15;52.21;101158.25;5136099;27;20031;-49
2022/06/15 08:25:09;;;;;;;8.63;5.03;;;;;;;21.00;50.69;101150.34;5137144;27;20030;-48
2022/06/15 08:27:35;;;;;;;6.82;3.65;;;;;;;21.56;48.94;101155.94;5136320;27;20032;-50
2022/06/15 08:30:03;;;;;;;9.15;3.75;;;;;;;22.09;49.08;101149.03;5137409;27;20482;-48
2022/06/15 08:32:29;;;;;;;10.45;3.78;;;;;;;22.50;47.00;101141.34;5137792;27;20475;-48
2022/06/15 08:34:56;;;;;;;7.40;4.35;;;;;;;22.86;46.18;101144.44;5136161;27;20064;-49
2022/06/15 08:37:22;;;;;;;13.00;4.25;;;;;;;23.12;45.55;101114.56;5137268;27;20031;-52
2022/06/15 08:39:48;;;;;;;4.68;3.00;;;;;;;23.65;44.89;101120.16;5137437;27;20104;-48
2022/06/15 08:42:35;;;;;;;8.57;3.55;;;;;;;24.34;41.69;101135.56;5137337;27;20023;-50
2022/06/15 08:45:18;;;;;;;8.10;3.65;;;;;;;24.74;40.95;101134.06;5136128;27;20027;-48
2022/06/15 08:48:01;;;;;;;10.83;3.67;;;;;;;25.29;39.29;101126.13;5137639;27;20028;-51
2022/06/15 08:50:55;;;;;;;5.45;3.13;;;;;;;25.28;39.56;101130.81;5136075;27;20267;-47
2022/06/15 08:53:30;;;;;;;6.53;2.45;;;;;;;25.06;39.82;101136.56;5136383;27;20046;-47
2022/06/15 08:56:03;;;;;;;3.25;2.20;;;;;;;25.71;40.07;101126.91;5136282;27;20024;-48
2022/06/15 08:58:51;;;;;;;4.03;2.55;;;;;;;25.91;38.74;101110.31;5137018;27;20501;-49
2022/06/15 09:01:41;;;;;;;3.50;1.80;;;;;;;26.80;36.68;101113.19;5137258;27;20031;-47
2022/06/15 09:04:23;;;;;;;7.78;3.00;;;;;;;27.04;33.84;101107.75;5122482;27;20023;-48
2022/06/15 09:07:06;;;;;;;6.22;2.28;;;;;;;27.56;35.15;101107.28;5136940;27;20031;-47
2022/06/15 09:09:51;;;;;;;4.88;2.40;;;;;;;27.96;34.05;101099.69;5137091;27;20126;-51
2022/06/15 09:12:49;;;;;;;4.22;2.63;;;;;;;28.37;33.57;101115.72;5136909;27;20436;-47
2022/06/15 09:15:33;;;;;;;6.07;2.50;;;;;;;28.30;30.33;101106.97;5136143;27;20382;-48
2022/06/15 09:18:01;;;;;;;;;;;;;;;28.01;30.84;101107.91;5136224;27;20459;-48
2022/06/15 09:20:49;;;;;;;4.93;1.92;;;;;;;28.62;31.67;101108.19;5135684;27;19907;-47
2022/06/15 09:23:22;;;;;;;5.22;2.63;;;;;;;28.94;29.64;101104.66;5137216;27;20413;-49
2022/06/15 09:25:55;;;;;;;4.10;2.15;;;;;;;28.78;31.33;101098.53;5137189;27;20023;-49
2022/06/15 09:28:37;;;;;;;4.15;1.92;;;;;;;29.07;27.97;101108.59;5136121;27;20130;-48
2022/06/15 09:31:10;;;;;;;3.53;1.40;;;;;;;29.82;31.26;101109.44;5135964;27;20177;-50
2022/06/15 09:33:47;;;;;;;4.57;1.92;;;;;;;30.33;29.04;101105.63;5137037;27;20418;-49
2022/06/15 09:36:22;;;;;;;5.78;1.50;;;;;;;30.55;27.76;101110.34;5136050;27;20058;-51
2022/06/15 09:38:47;;;;;;;3.13;1.70;;;;;;;30.94;28.61;101092.25;5135055;27;20395;-50
2022/06/15 09:41:24;;;;;;;3.95;1.70;;;;;;;31.02;27.65;101097.06;5135330;27;20023;-49
2022/06/15 09:44:15;;;;;;;4.20;1.55;;;;;;;31.32;26.71;101083.50;5135664;27;20053;-46
2022/06/15 09:46:51;;;;;;;3.85;1.95;;;;;;;31.59;26.89;101087.22;5135361;27;20122;-46
2022/06/15 09:49:43;;;;;;;1.42;1.27;;;;;;;31.87;25.78;101101.69;5136421;27;20039;-47
2022/06/15 09:52:26;;;;;;;3.58;1.50;;;;;;;32.05;26.10;101093.44;5121596;27;20502;-52
2022/06/15 09:55:07;;;;;;;2.33;1.38;;;;;;;32.38;23.65;101104.94;5135076;27;20070;-54
2022/06/15 09:57:35;;;;;;;4.63;1.80;;;;;;;32.35;24.49;101100.81;5136117;27;20027;-50
2022/06/15 10:00:03;;;;;;;5.63;1.88;;;;;;;32.42;24.27;101101.16;5136307;27;20137;-49
2022/06/15 10:02:33;;;;;;;3.10;2.00;;;;;;;32.25;23.90;101095.59;5136235;27;20023;-49
2022/06/15 10:05:01;;;;;;;4.93;1.58;;;;;;;32.58;25.26;101090.41;5135858;27;20041;-48
2022/06/15 10:07:32;;;;;;;3.90;1.80;;;;;;;32.24;24.76;101096.72;5135401;27;20026;-49
2022/06/15 10:10:13;;;;;;;6.97;1.65;;;;;;;32.59;24.36;101086.47;5134157;27;20042;-47
2022/06/15 10:13:02;;;;;;;3.45;1.80;;;;;;;32.63;25.05;101097.75;5134485;27;20031;-51
2022/06/15 10:15:51;;;;;;;5.13;1.75;;;;;;;32.97;22.92;101093.31;5135851;27;20027;-49
2022/06/15 10:18:42;;;;;;;5.03;2.05;;;;;;;33.14;22.38;101098.03;5121354;27;20027;-51
2022/06/15 10:21:22;;;;;;;7.07;2.25;;;;;;;33.03;22.18;101088.38;5135352;27;20039;-49
2022/06/15 10:23:54;;;;;;;3.88;1.40;;;;;;;33.68;24.35;101087.19;5135143;27;20027;-50
2022/06/15 10:26:28;;;;;;;1.73;1.45;;;;;;;34.25;23.16;101090.63;5136343;27;20027;-52
2022/06/15 10:28:55;;;;;;;3.58;1.90;;;;;;;33.12;22.03;101089.22;5135633;27;20025;-51
2022/06/15 10:31:28;;;;;;;6.25;2.08;;;;;;;32.95;22.78;101090.03;5136591;27;20027;-52
2022/06/15 10:33:55;;;;;;;6.72;1.70;;;;;;;32.85;23.45;101080.06;5136656;27;20031;-52
2022/06/15 10:36:27;;;;;;;5.65;1.70;;;;;;;33.54;21.79;101087.41;5118254;27;20174;-51
2022/06/15 10:39:01;;;;;;;6.30;2.00;;;;;;;33.35;21.36;101084.22;5134755;27;20031;-51
2022/06/15 10:41:45;;;;;;;9.55;1.90;;;;;;;33.80;21.40;101080.91;5134596;27;20027;-49
2022/06/15 10:44:15;;;;;;;2.85;1.27;;;;;;;33.96;20.50;101080.34;5135660;27;20030;-50
2022/06/15 10:47:04;;;;;;;3.88;1.90;;;;;;;33.91;21.76;101075.75;5135735;27;20035;-50
2022/06/15 10:49:40;;;;;;;3.75;1.70;;;;;;;34.56;21.05;101081.84;5134943;27;20491;-50
2022/06/15 10:52:22;;;;;;;3.45;2.05;;;;;;;34.94;20.83;101078.06;5135855;27;20031;-48
2022/06/15 11:03:22;;;;;;;4.95;1.38;;;;;;;35.03;21.67;101075.16;5134733;28;20027;-51
2022/06/15 11:05:51;;;;;;;3.53;1.85;;;;;;;34.50;21.94;101077.66;5134837;28;20035;-49
2022/06/15 11:08:22;;;;;;;5.18;1.50;;;;;;;34.70;20.48;101067.66;5135224;27;20054;-51
2022/06/15 11:10:52;;;;;;;2.40;1.50;;;;;;;35.62;21.26;101063.63;5135791;27;20125;-51
2022/06/15 11:13:38;;;;;;;5.38;1.45;;;;;;;35.48;18.13;101055.59;5134891;27;20019;-49
2022/06/15 11:19:17;;;;;;;4.45;1.20;;;;;;;36.11;20.32;101057.19;5109258;28;20031;-52
2022/06/15 11:21:50;;;;;;;2.47;1.90;;;;;;;36.02;18.39;101046.13;5134224;27;20031;-48
2022/06/15 11:24:35;;;;;;;4.85;1.30;;;;;;;36.48;16.94;101056.25;5135273;27;20027;-49
2022/06/15 11:27:15;;;;;;;3.55;1.60;;;;;;;36.75;16.56;101065.84;5133982;28;20050;-50
2022/06/15 11:29:49;;;;;;;3.10;1.80;;;;;;;36.84;16.75;101060.09;5134561;27;20058;-51
2022/06/15 11:32:54;;;;;;;2.15;1.23;;;;;;;36.97;16.81;101056.03;5134454;27;20039;-50
2022/06/15 11:35:37;;;;;;;3.83;1.75;;;;;;;36.60;17.41;101048.63;5123033;28;20444;-52
2022/06/15 11:38:43;;;;;;;5.10;1.60;;;;;;;37.02;17.76;101058.59;5135087;27;20106;-49
2022/06/15 11:41:24;;;;;;;2.70;1.52;;;;;;;37.48;17.45;101047.75;5090451;28;20035;-49
2022/06/15 11:43:52;;;;;;;3.00;1.77;;;;;;;36.99;18.40;101048.88;5134166;27;20023;-54
2022/06/15 11:46:57;;;;;;;2.45;1.63;;;;;;;37.17;17.32;101060.59;5134484;27;20027;-50
2022/06/15 11:49:37;;;;;;;3.40;1.75;;;;;;;37.31;16.54;101042.50;5121675;28;20038;-50
2022/06/15 11:52:40;;;;;;;3.33;1.88;;;;;;;37.60;17.38;101052.44;5134229;27;20095;-47
2022/06/15 11:55:21;;;;;;;4.97;1.70;;;;;;;37.44;16.71;101034.81;5134009;27;20114;-50
2022/06/15 11:58:26;;;;;;;3.42;1.90;;;;;;;36.83;16.08;101042.47;5132855;28;20074;-47
2022/06/15 12:01:19;;;;;;;5.25;1.83;;;;;;;37.44;16.23;101038.44;5121377;28;20023;-51